Time;durP1;ratioP1;P1;durP2;ratioP2;P2;SDS_P1;SDS_P2;PMS_P1;PMS_P2;Temp;Humidity;BMP_temperature;BMP_pressure;BME280_temperature;BME280_humidity;BME280_pressure;Samples;Min_cycle;Max_cycle;Signal;HPM_P1;HPM_P2
2023/11/02 00:00:56;;;;;;;1.25;1.15;;;;;;;3.70;100.00;91478.06;2082001;28;20034;-81
2023/11/02 00:01:57;;;;;;;2.15;1.10;;;;;;;3.83;100.00;91478.16;2076525;28;20037;-83
2023/11/02 00:02:58;;;;;;;1.45;1.10;;;;;;;3.78;100.00;91466.19;2084025;28;20415;-83
2023/11/02 00:03:59;;;;;;;1.40;1.30;;;;;;;3.78;100.00;91468.09;2078784;28;20017;-82
2023/11/02 00:05:01;;;;;;;1.95;1.20;;;;;;;3.82;100.00;91473.25;2074840;28;20017;-83
2023/11/02 00:06:05;;;;;;;1.30;1.20;;;;;;;3.90;100.00;91472.69;2089867;28;20021;-83
2023/11/02 00:07:07;;;;;;;1.70;1.10;;;;;;;3.91;100.00;91471.56;2081680;28;20029;-83
2023/11/02 00:08:09;;;;;;;1.40;1.23;;;;;;;3.91;100.00;91458.34;2089840;28;20031;-83
2023/11/02 00:09:39;;;;;;;1.42;1.33;;;;;;;3.99;100.00;91454.34;2078278;28;20471;-83
2023/11/02 00:10:40;;;;;;;2.33;1.40;;;;;;;4.04;100.00;91448.56;2081256;28;20039;-83
2023/11/02 00:11:51;;;;;;;1.33;1.10;;;;;;;3.92;100.00;91441.31;2079837;28;20026;-82
2023/11/02 00:12:52;;;;;;;2.42;1.20;;;;;;;3.72;100.00;91438.75;2099471;28;20028;-82
2023/11/02 00:13:53;;;;;;;2.03;1.20;;;;;;;3.77;100.00;91434.88;2100556;28;20426;-82
2023/11/02 00:14:55;;;;;;;2.05;1.40;;;;;;;3.82;100.00;91428.34;2089830;28;20470;-82
2023/11/02 00:15:56;;;;;;;2.75;1.60;;;;;;;3.64;100.00;91426.13;2071255;28;20026;-82
2023/11/02 00:16:57;;;;;;;4.57;1.52;;;;;;;3.45;100.00;91422.41;2081670;28;20030;-81
2023/11/02 00:18:00;;;;;;;3.10;1.30;;;;;;;3.56;100.00;91419.50;2076703;28;20504;-82
2023/11/02 00:19:01;;;;;;;1.48;1.25;;;;;;;3.65;100.00;91423.09;2078631;28;20072;-83
2023/11/02 00:20:04;;;;;;;2.17;1.40;;;;;;;3.63;100.00;91420.09;2084071;28;20112;-82
2023/11/02 00:21:09;;;;;;;2.30;1.20;;;;;;;3.82;100.00;91420.41;2074660;28;20100;-82
2023/11/02 00:22:10;;;;;;;1.45;1.15;;;;;;;3.82;100.00;91417.78;2082506;28;20041;-82
2023/11/02 00:23:13;;;;;;;4.75;1.30;;;;;;;3.76;100.00;91418.28;2079614;28;20048;-81
2023/11/02 00:24:14;;;;;;;2.75;1.30;;;;;;;3.82;100.00;91415.13;2084545;28;20030;-82
2023/11/02 00:25:39;;;;;;;1.75;1.10;;;;;;;3.81;100.00;91414.38;2081148;28;20024;-83
2023/11/02 00:26:40;;;;;;;1.73;1.15;;;;;;;3.82;100.00;91410.59;2084886;28;20028;-82
2023/11/02 00:27:41;;;;;;;1.52;1.20;;;;;;;3.69;100.00;91407.16;2088052;28;20123;-83
2023/11/02 00:28:43;;;;;;;2.85;1.30;;;;;;;3.84;100.00;91395.06;2089520;28;20029;-83
2023/11/02 00:29:44;;;;;;;1.45;1.20;;;;;;;3.83;100.00;91387.56;2079904;28;20021;-82
2023/11/02 00:30:47;;;;;;;2.08;1.20;;;;;;;3.92;100.00;91385.81;2073012;28;20029;-83
2023/11/02 00:31:49;;;;;;;2.38;1.20;;;;;;;3.88;100.00;91385.16;2082239;28;20344;-84
2023/11/02 00:32:50;;;;;;;1.50;1.17;;;;;;;3.78;100.00;91384.25;2086550;28;20069;-83
2023/11/02 00:33:51;;;;;;;2.65;1.25;;;;;;;3.78;100.00;91386.91;2073362;28;20045;-83
2023/11/02 00:34:52;;;;;;;1.58;1.13;;;;;;;3.96;100.00;91375.91;2065722;28;20043;-81
2023/11/02 00:35:54;;;;;;;1.35;1.10;;;;;;;3.91;100.00;91376.41;2073178;28;20032;-84
2023/11/02 00:36:57;;;;;;;1.45;1.00;;;;;;;3.92;100.00;91383.16;2072078;28;20022;-83
2023/11/02 00:37:58;;;;;;;1.77;0.93;;;;;;;3.93;100.00;91373.34;2082054;28;20032;-83
2023/11/02 00:38:59;;;;;;;1.20;1.10;;;;;;;3.94;100.00;91369.53;2087096;28;20047;-82
2023/11/02 00:40:00;;;;;;;1.50;1.30;;;;;;;3.93;100.00;91368.03;2081147;28;20851;-82
2023/11/02 00:41:02;;;;;;;3.03;1.00;;;;;;;3.92;100.00;91366.56;2072773;28;20032;-81
2023/11/02 00:42:04;;;;;;;1.48;0.95;;;;;;;3.86;100.00;91363.66;2064145;28;20085;-82
2023/11/02 00:43:05;;;;;;;2.65;1.00;;;;;;;4.08;100.00;91353.28;2073082;28;20423;-83
2023/11/02 00:44:07;;;;;;;1.67;1.08;;;;;;;4.01;100.00;91354.22;2085861;28;20190;-83
2023/11/02 00:45:08;;;;;;;2.22;1.00;;;;;;;4.15;100.00;91355.75;2080419;28;20376;-82
2023/11/02 00:46:10;;;;;;;16.17;2.03;;;;;;;4.20;100.00;91354.50;2081974;28;20490;-83
2023/11/02 00:47:15;;;;;;;1.33;0.90;;;;;;;4.18;100.00;91347.00;2097757;28;20127;-83
2023/11/02 00:48:28;;;;;;;2.17;1.10;;;;;;;4.08;100.00;91341.97;2082051;28;20120;-83
2023/11/02 00:49:35;;;;;;;1.10;1.00;;;;;;;4.04;100.00;91334.91;2075671;28;20491;-83
2023/11/02 00:51:06;;;;;;;1.92;1.20;;;;;;;4.25;100.00;91346.06;2069856;28;20113;-81
2023/11/02 00:52:08;;;;;;;2.80;1.15;;;;;;;4.05;100.00;91335.66;2073185;28;20026;-82
2023/11/02 00:53:09;;;;;;;2.67;1.10;;;;;;;4.17;100.00;91334.19;2066268;28;20029;-83
2023/11/02 00:54:52;;;;;;;1.48;0.90;;;;;;;4.18;100.00;91323.22;2078721;28;20017;-83
2023/11/02 00:55:53;;;;;;;0.88;0.73;;;;;;;4.03;100.00;91324.72;2083432;28;20432;-83
2023/11/02 00:56:54;;;;;;;1.20;1.00;;;;;;;4.08;100.00;91323.47;2074836;28;20021;-83
2023/11/02 00:57:57;;;;;;;1.65;1.10;;;;;;;4.20;100.00;91320.88;2084086;28;20112;-83
2023/11/02 00:58:59;;;;;;;1.70;1.00;;;;;;;4.16;100.00;91325.50;2084539;28;20445;-82
2023/11/02 01:00:00;;;;;;;1.30;1.20;;;;;;;4.16;100.00;91320.22;2077816;28;20100;-83
2023/11/02 01:01:10;;;;;;;3.75;1.10;;;;;;;4.17;100.00;91311.16;2073350;28;20026;-83
2023/11/02 01:02:14;;;;;;;1.30;1.20;;;;;;;4.22;100.00;91315.19;2075748;28;20057;-82
2023/11/02 01:03:15;;;;;;;3.13;1.15;;;;;;;4.32;100.00;91319.44;2088939;28;20036;-82
2023/11/02 01:04:43;;;;;;;1.38;1.20;;;;;;;4.43;100.00;91317.22;2083760;28;20519;-83
2023/11/02 01:05:44;;;;;;;1.10;1.00;;;;;;;4.53;100.00;91312.81;2084668;28;20021;-82
2023/11/02 01:06:45;;;;;;;1.30;1.20;;;;;;;4.72;100.00;91313.78;2073166;28;20132;-82
2023/11/02 01:07:46;;;;;;;1.73;1.23;;;;;;;4.68;100.00;91311.22;2071655;28;20487;-83
2023/11/02 01:09:16;;;;;;;2.53;1.60;;;;;;;4.47;100.00;91304.63;2084269;28;20390;-83
2023/11/02 01:10:21;;;;;;;1.90;1.48;;;;;;;4.53;100.00;91305.59;2093561;28;20147;-82
2023/11/02 01:11:27;;;;;;;2.35;1.30;;;;;;;4.77;100.00;91307.94;2082346;28;20025;-83
2023/11/02 01:12:32;;;;;;;2.08;1.23;;;;;;;4.60;100.00;91303.91;2076977;28;20021;-83
2023/11/02 01:13:33;;;;;;;3.55;1.58;;;;;;;4.70;100.00;91303.63;2074134;28;20065;-83
2023/11/02 01:14:50;;;;;;;4.47;1.50;;;;;;;4.88;100.00;91294.41;2074923;28;20022;-81
2023/11/02 01:16:07;;;;;;;1.67;1.58;;;;;;;4.81;100.00;91295.34;2094862;28;20176;-81
2023/11/02 01:17:18;;;;;;;4.18;1.60;;;;;;;4.57;100.00;91294.19;2079663;28;20030;-83
2023/11/02 01:18:19;;;;;;;1.75;1.60;;;;;;;4.74;100.00;91290.25;2085999;28;20017;-83
2023/11/02 01:19:52;;;;;;;2.80;1.40;;;;;;;4.71;100.00;91285.84;2087403;28;20021;-83
2023/11/02 01:20:59;;;;;;;1.48;1.38;;;;;;;4.69;100.00;91288.16;2084692;28;20053;-83
2023/11/02 01:22:00;;;;;;;2.10;1.90;;;;;;;4.68;100.00;91276.81;2087828;28;20560;-82
2023/11/02 01:23:06;;;;;;;2.70;2.20;;;;;;;4.67;100.00;91277.25;2081114;28;20025;-83
2023/11/02 01:24:09;;;;;;;2.15;2.05;;;;;;;4.63;100.00;91273.97;2070522;28;20040;-83
2023/11/02 01:25:11;;;;;;;3.17;2.30;;;;;;;4.73;100.00;91262.31;2084471;28;20108;-81
2023/11/02 01:26:46;;;;;;;2.97;2.05;;;;;;;4.69;100.00;91266.97;2035669;28;22135;-82
2023/11/02 01:27:47;;;;;;;4.30;2.30;;;;;;;4.66;100.00;91262.53;1998136;28;20502;-83
2023/11/02 01:28:52;;;;;;;2.42;2.22;;;;;;;4.57;100.00;91268.47;2004987;28;20030;-82
2023/11/02 01:29:53;;;;;;;3.30;2.63;;;;;;;4.68;100.00;91263.59;2018106;28;20044;-83
2023/11/02 01:31:00;;;;;;;2.83;2.53;;;;;;;4.66;100.00;91251.97;2000904;28;20068;-83
2023/11/02 01:32:03;;;;;;;2.63;2.42;;;;;;;4.69;100.00;91245.81;2034656;28;20823;-82
2023/11/02 01:33:27;;;;;;;3.10;2.80;;;;;;;4.72;100.00;91251.00;2034362;28;20041;-82
2023/11/02 01:34:29;;;;;;;4.70;3.03;;;;;;;4.82;100.00;91249.19;2044975;28;20032;-82
2023/11/02 01:35:39;;;;;;;3.30;3.00;;;;;;;4.90;100.00;91249.72;2052224;28;20035;-81
2023/11/02 01:36:41;;;;;;;4.97;3.33;;;;;;;4.95;100.00;91252.56;2064152;28;20116;-82
2023/11/02 01:37:41;;;;;;;4.38;2.92;;;;;;;4.88;100.00;91257.34;2078742;28;20151;-82
2023/11/02 01:38:44;;;;;;;3.20;3.00;;;;;;;5.15;100.00;91243.66;2074641;28;20025;-82
2023/11/02 01:39:45;;;;;;;3.25;2.95;;;;;;;5.19;100.00;91247.66;2072872;28;20042;-83
2023/11/02 01:41:04;;;;;;;4.57;4.10;;;;;;;5.25;100.00;91243.28;2078605;28;20033;-84
2023/11/02 01:42:06;;;;;;;3.92;3.42;;;;;;;5.34;100.00;91240.00;2075071;28;20026;-83
2023/11/02 01:43:12;;;;;;;4.22;3.70;;;;;;;5.48;100.00;91238.78;2062775;28;20062;-81
2023/11/02 01:44:27;;;;;;;4.35;3.72;;;;;;;5.43;100.00;91241.97;2063854;28;20120;-84
2023/11/02 01:45:33;;;;;;;4.88;3.22;;;;;;;5.29;100.00;91243.19;2070188;28;20022;-84
2023/11/02 01:46:47;;;;;;;5.00;3.67;;;;;;;5.12;100.00;91231.25;2014160;28;20086;-83
2023/11/02 01:48:12;;;;;;;4.22;3.80;;;;;;;5.13;100.00;91233.47;2001925;28;20040;-82
2023/11/02 01:49:31;;;;;;;4.35;3.38;;;;;;;5.25;100.00;91224.03;2008350;28;21474;-83
2023/11/02 01:50:44;;;;;;;5.05;3.83;;;;;;;5.24;100.00;91227.84;2012132;28;20112;-83
2023/11/02 01:51:54;;;;;;;4.88;3.83;;;;;;;5.46;100.00;91227.88;2037574;28;20029;-83
2023/11/02 01:53:46;;;;;;;4.00;3.60;;;;;;;5.41;100.00;91213.28;2041922;28;20911;-82
2023/11/02 01:55:00;;;;;;;4.00;3.70;;;;;;;5.49;100.00;91217.16;2035066;28;20031;-82
2023/11/02 01:56:29;;;;;;;4.43;4.03;;;;;;;5.65;100.00;91213.59;2052279;28;20019;-82
2023/11/02 01:58:12;;;;;;;4.55;3.85;;;;;;;5.59;100.00;91202.06;2069549;28;20371;-83
2023/11/02 01:59:26;;;;;;;4.93;3.70;;;;;;;5.57;100.00;91193.81;2044211;29;20047;-82
2023/11/02 02:00:37;;;;;;;5.03;4.05;;;;;;;5.54;100.00;91206.03;2084984;28;20121;-83
2023/11/02 02:01:52;;;;;;;4.40;4.00;;;;;;;5.70;100.00;91191.09;2078637;28;20029;-83
2023/11/02 02:03:04;;;;;;;4.38;3.97;;;;;;;5.66;100.00;91185.19;2079239;28;20119;-82
2023/11/02 02:04:37;;;;;;;4.20;3.65;;;;;;;5.89;100.00;91186.66;2030874;28;20049;-84
2023/11/02 02:05:55;;;;;;;4.18;3.78;;;;;;;5.80;100.00;91190.00;2009935;28;20054;-82
2023/11/02 02:07:35;;;;;;;4.00;3.70;;;;;;;5.91;100.00;91182.41;2020500;28;20564;-84
2023/11/02 02:09:13;;;;;;;4.32;3.92;;;;;;;6.20;100.00;91170.81;2027371;28;20560;-82
2023/11/02 02:10:42;;;;;;;3.92;3.58;;;;;;;6.05;100.00;91171.31;2036131;28;20771;-81
2023/11/02 02:11:57;;;;;;;3.65;3.35;;;;;;;6.01;100.00;91152.16;2040447;28;20769;-83
2023/11/02 02:13:09;;;;;;;4.20;3.88;;;;;;;6.07;100.00;91154.97;2055027;28;20036;-83
2023/11/02 02:14:22;;;;;;;4.10;3.70;;;;;;;6.22;100.00;91153.25;2069193;28;20030;-81
2023/11/02 02:15:36;;;;;;;5.65;3.90;;;;;;;6.20;100.00;91141.63;2070019;28;20718;-83
2023/11/02 02:16:50;;;;;;;3.97;3.67;;;;;;;6.11;100.00;91150.28;2072392;28;20032;-83
2023/11/02 02:17:54;;;;;;;3.95;3.63;;;;;;;6.26;100.00;91140.59;2074419;28;20414;-81
2023/11/02 02:19:13;;;;;;;4.28;3.88;;;;;;;6.24;100.00;91137.66;2081544;28;20124;-82
2023/11/02 02:20:25;;;;;;;3.88;3.58;;;;;;;6.36;100.00;91145.94;2088956;28;20050;-82
2023/11/02 02:21:55;;;;;;;4.40;4.00;;;;;;;6.24;100.00;91148.28;2069997;28;20474;-83
2023/11/02 02:23:00;;;;;;;5.53;3.85;;;;;;;6.22;100.00;91153.25;2076111;28;20047;-83
2023/11/02 02:24:17;;;;;;;3.78;3.47;;;;;;;6.30;100.00;91149.16;2066963;28;20041;-83
2023/11/02 02:25:58;;;;;;;3.92;3.63;;;;;;;6.35;100.00;91145.19;2082091;28;20040;-82
2023/11/02 02:27:41;;;;;;;5.65;4.03;;;;;;;6.38;100.00;91148.91;2001162;28;22654;-84
2023/11/02 02:29:06;;;;;;;4.28;3.92;;;;;;;6.60;100.00;91152.22;1973627;29;20123;-83
2023/11/02 02:30:34;;;;;;;3.83;3.47;;;;;;;6.50;100.00;91150.72;2004799;28;20643;-82
2023/11/02 02:31:53;;;;;;;5.00;3.65;;;;;;;6.40;100.00;91149.19;2046436;28;20188;-84
2023/11/02 02:33:38;;;;;;;4.10;3.75;;;;;;;6.51;100.00;91131.69;2055251;28;20025;-84
2023/11/02 02:34:56;;;;;;;4.13;3.75;;;;;;;6.39;100.00;91124.59;2060974;28;20629;-84
2023/11/02 02:36:13;;;;;;;4.00;3.70;;;;;;;6.37;100.00;91145.53;2064693;28;20177;-82
2023/11/02 02:37:27;;;;;;;6.03;3.72;;;;;;;6.25;100.00;91143.69;2074596;28;20111;-82
2023/11/02 02:38:50;;;;;;;4.50;4.10;;;;;;;6.25;100.00;91149.75;2090187;28;20021;-83
2023/11/02 02:39:59;;;;;;;3.97;3.67;;;;;;;6.25;100.00;91149.75;2086572;28;20124;-84
2023/11/02 02:41:07;;;;;;;4.15;3.80;;;;;;;6.42;100.00;91142.28;2079382;28;20032;-82
2023/11/02 02:42:13;;;;;;;3.72;3.38;;;;;;;6.38;100.00;91149.66;2071229;28;20030;-83
2023/11/02 02:43:17;;;;;;;5.35;4.00;;;;;;;6.42;100.00;91131.69;2068235;28;20091;-83
2023/11/02 02:44:21;;;;;;;3.67;3.38;;;;;;;6.49;100.00;91136.69;2073081;28;20033;-82
2023/11/02 02:45:27;;;;;;;3.88;3.58;;;;;;;6.55;100.00;91139.53;2062828;28;20154;-82
2023/11/02 02:46:31;;;;;;;5.55;3.90;;;;;;;6.46;100.00;91137.59;2066098;28;20125;-82
2023/11/02 02:47:33;;;;;;;4.43;3.80;;;;;;;6.46;100.00;91126.25;2076511;28;20113;-82
2023/11/02 02:48:35;;;;;;;7.88;4.20;;;;;;;6.34;100.00;91121.78;2072859;28;20044;-83
2023/11/02 02:49:43;;;;;;;4.80;4.40;;;;;;;6.43;100.00;91113.84;2078635;28;20648;-83
2023/11/02 02:50:46;;;;;;;4.20;3.90;;;;;;;6.44;100.00;91105.44;2097756;28;20101;-83
2023/11/02 02:51:50;;;;;;;4.93;4.28;;;;;;;6.61;100.00;91100.59;2092045;28;20404;-83
2023/11/02 02:52:54;;;;;;;7.35;4.15;;;;;;;6.52;100.00;91113.84;2089180;28;20056;-83
2023/11/02 02:53:59;;;;;;;3.78;3.47;;;;;;;6.60;100.00;91099.13;2091978;28;20021;-84
2023/11/02 02:55:01;;;;;;;3.85;3.55;;;;;;;6.53;100.00;91107.38;2079724;28;20383;-84
2023/11/02 02:56:07;;;;;;;4.55;3.47;;;;;;;6.52;100.00;91111.22;2075510;28;20021;-82
2023/11/02 02:57:11;;;;;;;3.80;3.50;;;;;;;6.52;100.00;91105.91;2077688;28;20400;-84
2023/11/02 02:58:13;;;;;;;3.78;3.25;;;;;;;6.51;100.00;91107.81;2080324;28;20042;-83
2023/11/02 02:59:20;;;;;;;3.53;3.22;;;;;;;6.60;100.00;91109.03;2082221;28;20504;-83
2023/11/02 03:00:23;;;;;;;3.72;3.30;;;;;;;6.66;100.00;91110.63;2096606;28;20078;-83
2023/11/02 03:01:28;;;;;;;4.57;4.13;;;;;;;6.58;100.00;91109.44;2090237;28;20029;-83
2023/11/02 03:02:34;;;;;;;3.72;3.42;;;;;;;6.61;100.00;91113.16;2087896;28;20390;-84
2023/11/02 03:03:41;;;;;;;3.63;3.33;;;;;;;6.60;100.00;91107.09;2021727;28;20031;-83
2023/11/02 03:04:45;;;;;;;3.95;3.65;;;;;;;6.68;100.00;91103.00;2008768;28;20028;-82
2023/11/02 03:05:46;;;;;;;4.20;3.88;;;;;;;6.59;100.00;91102.97;2009004;28;20726;-84
2023/11/02 03:06:51;;;;;;;4.60;3.65;;;;;;;6.67;100.00;91096.22;2009926;28;20030;-82
2023/11/02 03:07:55;;;;;;;4.03;3.63;;;;;;;6.62;100.00;91090.72;2018717;28;20187;-83
2023/11/02 03:09:00;;;;;;;4.10;3.80;;;;;;;6.59;100.00;91088.97;2041775;28;20059;-84
2023/11/02 03:10:05;;;;;;;4.45;3.92;;;;;;;6.63;100.00;91094.84;2044388;28;20101;-81
2023/11/02 03:11:09;;;;;;;4.38;3.97;;;;;;;6.51;100.00;91091.16;2044911;28;20065;-84
2023/11/02 03:12:18;;;;;;;4.13;3.83;;;;;;;6.58;100.00;91082.91;2057228;28;20040;-83
2023/11/02 03:13:21;;;;;;;4.45;4.05;;;;;;;6.56;100.00;91078.03;2090339;28;20223;-84
2023/11/02 03:14:24;;;;;;;4.10;3.80;;;;;;;6.55;100.00;91081.16;2080301;28;20057;-81
2023/11/02 03:15:28;;;;;;;4.20;3.80;;;;;;;6.51;100.00;91075.22;2079035;28;20080;-83
2023/11/02 03:16:34;;;;;;;4.70;4.22;;;;;;;6.50;100.00;91074.50;2080725;28;20021;-84
2023/11/02 03:18:02;;;;;;;4.60;3.80;;;;;;;6.54;100.00;91069.03;2068956;28;20028;-83
2023/11/02 03:19:05;;;;;;;4.32;3.90;;;;;;;6.52;100.00;91058.88;2081300;28;20029;-84
2023/11/02 03:20:12;;;;;;;4.05;3.75;;;;;;;6.55;100.00;91057.25;1998349;28;20390;-82
2023/11/02 03:21:14;;;;;;;4.35;3.95;;;;;;;6.53;100.00;91052.38;2014519;28;20025;-84
2023/11/02 03:22:18;;;;;;;4.82;4.25;;;;;;;6.59;100.00;91043.84;2015980;28;21605;-83
2023/11/02 03:23:45;;;;;;;4.60;3.78;;;;;;;6.65;100.00;91052.69;2035595;28;20116;-83
2023/11/02 03:24:57;;;;;;;7.28;3.63;;;;;;;6.64;100.00;91032.63;2044970;28;20033;-84
2023/11/02 03:26:07;;;;;;;4.60;3.78;;;;;;;6.68;100.00;91025.28;2048465;28;20030;-82
2023/11/02 03:27:14;;;;;;;4.03;3.40;;;;;;;6.62;100.00;91005.78;2063945;28;20025;-84
2023/11/02 03:28:27;;;;;;;5.07;3.40;;;;;;;6.57;100.00;90997.22;2070810;28;20108;-81
2023/11/02 03:29:28;;;;;;;4.05;3.72;;;;;;;6.57;100.00;90975.25;2072777;28;20029;-85
2023/11/02 03:30:41;;;;;;;4.38;3.25;;;;;;;6.66;100.00;90985.13;2075501;28;20122;-83
2023/11/02 03:31:57;;;;;;;3.95;3.40;;;;;;;6.62;100.00;90966.69;2092339;28;20028;-83
2023/11/02 03:33:13;;;;;;;3.35;3.15;;;;;;;6.75;100.00;90956.66;2079442;28;20021;-84
2023/11/02 03:34:17;;;;;;;4.10;3.50;;;;;;;6.67;100.00;90960.81;2074121;28;20033;-84
2023/11/02 03:35:37;;;;;;;3.85;3.55;;;;;;;6.65;100.00;90952.56;2074468;28;20044;-84
2023/11/02 03:36:53;;;;;;;3.40;3.10;;;;;;;7.13;100.00;90936.84;2081032;28;20478;-84
2023/11/02 03:38:06;;;;;;;4.88;3.30;;;;;;;6.88;100.00;90937.19;2073946;28;20125;-85
2023/11/02 03:39:22;;;;;;;3.72;3.38;;;;;;;6.70;100.00;90937.94;2083793;28;20976;-82
2023/11/02 03:40:26;;;;;;;4.00;3.17;;;;;;;6.62;100.00;90928.81;1998628;28;20128;-84
2023/11/02 03:42:11;;;;;;;3.60;3.13;;;;;;;6.57;100.00;90920.25;1999069;28;22130;-83
2023/11/02 03:43:19;;;;;;;3.55;3.20;;;;;;;6.57;100.00;90909.63;2029100;28;20209;-82
2023/11/02 03:45:09;;;;;;;4.35;3.72;;;;;;;6.70;100.00;90914.06;2037363;28;20048;-83
2023/11/02 03:46:26;;;;;;;4.60;3.30;;;;;;;6.63;100.00;90909.03;2050232;28;20115;-84
2023/11/02 03:47:41;;;;;;;3.95;3.55;;;;;;;6.66;100.00;90911.53;2078335;28;20082;-84
2023/11/02 03:48:50;;;;;;;4.53;3.67;;;;;;;6.51;100.00;90900.81;2087558;28;20029;-85
2023/11/02 03:49:51;;;;;;;4.10;3.55;;;;;;;6.71;100.00;90887.06;2082774;28;20670;-84
2023/11/02 03:50:55;;;;;;;4.20;3.78;;;;;;;6.53;100.00;90889.75;2065608;28;20034;-84
2023/11/02 03:52:32;;;;;;;5.55;4.00;;;;;;;6.58;100.00;90886.50;2079465;28;20501;-84
2023/11/02 03:53:50;;;;;;;4.13;3.70;;;;;;;6.67;100.00;90889.16;2078492;28;20052;-84
2023/11/02 03:55:29;;;;;;;4.10;3.38;;;;;;;6.52;100.00;90883.69;2086513;28;20436;-84
2023/11/02 03:56:51;;;;;;;4.30;3.75;;;;;;;6.56;100.00;90875.59;2092285;28;20025;-85
2023/11/02 03:58:17;;;;;;;4.25;3.85;;;;;;;6.36;100.00;90886.66;2077967;28;20381;-83
2023/11/02 03:59:26;;;;;;;5.70;4.15;;;;;;;6.50;100.00;90886.06;2078133;28;20037;-83
2023/11/02 04:00:31;;;;;;;5.68;4.40;;;;;;;6.85;100.00;90884.97;2078823;28;20129;-82
2023/11/02 04:01:48;;;;;;;4.85;3.97;;;;;;;6.81;100.00;90877.19;2089743;28;20470;-84
2023/11/02 04:02:56;;;;;;;4.40;4.00;;;;;;;6.57;100.00;90879.72;2051860;28;20025;-81
2023/11/02 04:04:08;;;;;;;4.25;3.70;;;;;;;6.62;100.00;90887.06;2000873;28;20025;-83
2023/11/02 04:05:26;;;;;;;5.70;4.00;;;;;;;6.84;100.00;90881.56;2014986;28;21757;-83
2023/11/02 04:06:47;;;;;;;4.63;4.07;;;;;;;6.88;100.00;90868.16;2011766;28;20029;-83
2023/11/02 04:07:48;;;;;;;5.47;4.57;;;;;;;6.90;100.00;90882.47;2030507;28;20033;-84
2023/11/02 04:08:50;;;;;;;4.75;4.22;;;;;;;6.77;100.00;90879.97;2027266;28;20167;-83
2023/11/02 04:10:03;;;;;;;4.35;3.90;;;;;;;7.19;100.00;90889.16;2030670;28;20024;-83
2023/11/02 04:11:13;;;;;;;4.35;3.80;;;;;;;7.16;100.00;90882.09;2047834;28;20032;-83
2023/11/02 04:12:44;;;;;;;6.88;4.30;;;;;;;6.90;100.00;90879.81;2062490;28;20024;-84
2023/11/02 04:14:10;;;;;;;4.20;3.80;;;;;;;6.76;100.00;90869.78;2090700;28;20027;-84
2023/11/02 04:15:14;;;;;;;4.32;3.50;;;;;;;6.81;100.00;90861.25;2087569;28;20025;-84
2023/11/02 04:16:15;;;;;;;5.47;3.78;;;;;;;6.92;100.00;90852.78;2074034;28;20025;-85
2023/11/02 04:17:18;;;;;;;4.10;3.72;;;;;;;6.89;100.00;90849.13;2076314;28;20048;-84
2023/11/02 04:18:19;;;;;;;4.45;4.05;;;;;;;6.76;100.00;90844.00;2082903;28;20025;-83
2023/11/02 04:19:20;;;;;;;4.10;3.70;;;;;;;6.63;100.00;90848.00;2090658;28;20732;-83
2023/11/02 04:20:21;;;;;;;3.65;3.35;;;;;;;6.89;100.00;90843.06;2088305;28;20642;-84
2023/11/02 04:21:22;;;;;;;3.88;3.58;;;;;;;7.05;100.00;90843.44;2080249;28;20022;-85
2023/11/02 04:22:23;;;;;;;3.70;3.33;;;;;;;7.04;100.00;90828.69;2080829;28;20083;-85
2023/11/02 04:23:24;;;;;;;6.57;4.10;;;;;;;6.98;100.00;90817.22;2081376;28;20018;-84
2023/11/02 04:24:28;;;;;;;4.10;3.70;;;;;;;6.92;100.00;90797.03;2076702;28;20779;-86
2023/11/02 04:25:29;;;;;;;4.75;3.67;;;;;;;6.96;100.00;90790.38;2090323;28;20059;-84
2023/11/02 04:26:32;;;;;;;4.10;3.70;;;;;;;6.96;100.00;90793.03;2079759;28;20025;-84
2023/11/02 04:27:33;;;;;;;4.10;3.70;;;;;;;6.94;100.00;90786.72;2073684;28;20121;-83
2023/11/02 04:28:34;;;;;;;4.63;3.50;;;;;;;6.74;100.00;90787.22;2085218;28;20028;-84
2023/11/02 04:29:35;;;;;;;4.07;3.55;;;;;;;6.74;100.00;90808.44;2081099;28;20128;-84
2023/11/02 04:30:36;;;;;;;3.90;3.45;;;;;;;6.72;100.00;90808.19;2081123;28;20022;-84
2023/11/02 04:31:37;;;;;;;4.28;3.50;;;;;;;6.64;100.00;90805.09;2070778;28;20057;-84
2023/11/02 04:32:38;;;;;;;3.63;3.28;;;;;;;6.87;100.00;90805.59;2088930;28;20056;-82
2023/11/02 04:33:39;;;;;;;3.75;3.30;;;;;;;6.82;100.00;90812.25;2078961;28;20135;-84
2023/11/02 04:34:40;;;;;;;3.78;3.30;;;;;;;6.81;100.00;90826.72;2071809;28;20068;-82
2023/11/02 04:35:41;;;;;;;7.07;3.45;;;;;;;6.73;100.00;90823.66;2079250;28;20031;-82
2023/11/02 04:36:42;;;;;;;3.85;3.25;;;;;;;6.85;100.00;90843.25;2080996;28;20022;-83
2023/11/02 04:37:43;;;;;;;4.18;3.72;;;;;;;6.75;100.00;90836.47;2083276;28;20450;-83
2023/11/02 04:38:44;;;;;;;4.05;3.50;;;;;;;6.81;100.00;90850.63;2087486;28;20025;-85
2023/11/02 04:39:45;;;;;;;4.07;3.08;;;;;;;6.89;100.00;90827.13;2080159;28;20038;-83
2023/11/02 04:40:46;;;;;;;4.50;3.15;;;;;;;6.88;100.00;90830.97;2070832;28;20037;-84
2023/11/02 04:41:47;;;;;;;3.40;3.10;;;;;;;6.92;100.00;90839.50;2072520;28;20030;-84
2023/11/02 04:42:48;;;;;;;3.20;2.90;;;;;;;6.89;100.00;90833.19;2066661;28;20109;-83
2023/11/02 04:43:49;;;;;;;2.97;2.78;;;;;;;7.08;100.00;90825.88;2064920;28;20478;-83
2023/11/02 04:44:52;;;;;;;3.25;2.95;;;;;;;7.03;100.00;90819.25;2071458;28;20060;-84
2023/11/02 04:45:53;;;;;;;3.45;3.13;;;;;;;7.07;100.00;90825.16;2072468;28;20073;-84
2023/11/02 04:46:55;;;;;;;3.15;2.85;;;;;;;6.99;100.00;90812.66;2065087;28;20033;-83
2023/11/02 04:47:56;;;;;;;4.50;2.85;;;;;;;7.00;100.00;90801.56;2064002;28;20019;-83
2023/11/02 04:48:57;;;;;;;3.35;3.05;;;;;;;6.92;100.00;90800.41;2065203;28;20057;-84
2023/11/02 04:50:00;;;;;;;3.38;2.97;;;;;;;6.97;100.00;90783.13;2062576;28;20026;-83
2023/11/02 04:51:01;;;;;;;3.95;2.53;;;;;;;6.89;100.00;90782.75;2083503;28;20083;-84
2023/11/02 04:52:04;;;;;;;2.88;2.60;;;;;;;6.92;100.00;90767.81;2078937;28;20512;-83
2023/11/02 04:53:06;;;;;;;3.17;2.88;;;;;;;6.93;100.00;90761.31;2057577;28;20137;-84
2023/11/02 04:54:07;;;;;;;3.67;3.03;;;;;;;6.81;100.00;90747.81;2056116;28;20109;-84
2023/11/02 04:55:08;;;;;;;3.40;3.10;;;;;;;6.88;100.00;90741.41;2065125;28;20089;-83
2023/11/02 04:56:09;;;;;;;3.17;2.88;;;;;;;6.95;100.00;90741.09;2065177;28;20427;-84
2023/11/02 04:57:11;;;;;;;3.20;2.80;;;;;;;6.86;100.00;90738.50;2061523;28;20108;-84
2023/11/02 04:58:13;;;;;;;3.10;2.90;;;;;;;6.94;100.00;90730.94;2064703;28;20120;-83
2023/11/02 04:59:14;;;;;;;4.20;2.70;;;;;;;7.03;100.00;90744.16;2066309;28;20025;-82
2023/11/02 05:00:15;;;;;;;5.30;3.00;;;;;;;6.86;100.00;90738.50;2064812;28;20049;-82
2023/11/02 05:01:16;;;;;;;6.70;3.05;;;;;;;6.78;100.00;90735.44;2079040;28;20028;-83
2023/11/02 05:02:17;;;;;;;3.90;3.50;;;;;;;6.97;100.00;90722.78;2081172;28;20052;-83
2023/11/02 05:03:18;;;;;;;3.58;3.28;;;;;;;7.03;100.00;90721.00;2073615;28;20408;-84
2023/11/02 05:04:19;;;;;;;3.72;3.28;;;;;;;7.02;100.00;90724.09;2067224;28;20392;-83
2023/11/02 05:05:20;;;;;;;3.08;2.80;;;;;;;6.91;100.00;90724.59;2064786;28;20022;-83
2023/11/02 05:06:21;;;;;;;3.47;3.17;;;;;;;6.97;100.00;90727.34;2077162;28;20048;-82
2023/11/02 05:07:23;;;;;;;4.15;3.03;;;;;;;6.93;100.00;90721.47;2070850;28;20030;-85
2023/11/02 05:08:24;;;;;;;4.05;3.25;;;;;;;6.93;100.00;90730.19;2056873;28;20034;-83
2023/11/02 05:09:25;;;;;;;3.40;3.10;;;;;;;6.98;100.00;90713.66;2065790;28;20026;-84
2023/11/02 05:10:26;;;;;;;3.30;3.10;;;;;;;6.98;100.00;90710.22;2071601;28;20421;-82
2023/11/02 05:11:28;;;;;;;5.18;3.30;;;;;;;7.09;100.00;90713.13;2079410;28;20037;-83
2023/11/02 05:12:29;;;;;;;3.50;3.20;;;;;;;6.99;100.00;90717.03;2081176;28;20033;-84
2023/11/02 05:13:30;;;;;;;4.25;3.30;;;;;;;7.06;100.00;90714.75;2073490;28;20398;-84
2023/11/02 05:14:31;;;;;;;3.53;3.10;;;;;;;7.14;100.00;90714.44;2073130;28;20026;-84
2023/11/02 05:15:32;;;;;;;3.35;3.05;;;;;;;7.00;100.00;90711.25;2072524;28;20056;-84
2023/11/02 05:16:33;;;;;;;3.33;2.97;;;;;;;7.05;100.00;90710.63;2081123;28;20029;-85
2023/11/02 05:17:34;;;;;;;4.85;3.58;;;;;;;7.12;100.00;90706.19;2073157;28;20049;-85
2023/11/02 05:18:35;;;;;;;5.20;3.30;;;;;;;7.19;100.00;90709.22;2070657;28;20022;-83
2023/11/02 05:19:39;;;;;;;2.70;2.50;;;;;;;7.23;100.00;90709.78;2056951;28;20075;-84
2023/11/02 05:20:40;;;;;;;4.30;3.25;;;;;;;7.25;100.00;90698.72;2060470;28;20033;-84
2023/11/02 05:21:43;;;;;;;3.28;2.83;;;;;;;7.15;100.00;90695.38;2064786;28;20974;-81
2023/11/02 05:22:44;;;;;;;4.43;3.63;;;;;;;7.10;100.00;90697.94;2060609;28;20020;-85